EBLG

Liège Airport

Liège, Belgium
METAR EBLG 162350Z 25009KT 9999 SCT022 01/M01 Q1019 NOSIG
Observed Flight Rules
Dec-16 @ 23:50 UTC (29 minutes ago) Visual Flight Rules
Wind Visibility Clouds
250° at 9 knots 10,000+ meters
  • Scattered at 2,200' AGL
Temperatures Readings
Current 1°C / 34°F
Dewpoint -1°C / 30°F
Humidity 87%
Altimeter 30.09" Hg
Pressure 1019 hPa
Elevation 178
METAR EBLG 162350Z 25009KT 9999 SCT022 01/M01 Q1019 NOSIG
Observed Flight Rules
Dec-16 @ 23:50 UTC
(29 minutes ago)
VFR
Wind Visibility
250° at 9 knots 10,000+ meters
Clouds
  • Scattered at 2,200' AGL
Temperature Dewpoint
1°C / 34°F -1°C / 30°F
Humidity Altimeter Pressure
87% 30.09" Hg 1019 hPa